DAUG

Noumérat - Moufdi Zakaria Airport

Ghardaïa, Algeria
METAR DAUG 231400Z 25012KT 220V280 9999 FEW046 17/M02 Q1006
Observed Flight Rules
Feb-23 @ 14:00 UTC (38 minutes ago) Visual Flight Rules
Wind Visibility Clouds
250° at 12 knots 10,000+ meters
  • Few at 4,600' AGL
Temperatures Readings
Current 17°C / 63°F
Dewpoint -2°C / 28°F
Humidity 27%
Altimeter 29.7" Hg
Pressure 1006 hPa
Elevation 450
METAR DAUG 231400Z 25012KT 220V280 9999 FEW046 17/M02 Q1006
Observed Flight Rules
Feb-23 @ 14:00 UTC
(38 minutes ago)
VFR
Wind Visibility
250° at 12 knots 10,000+ meters
Clouds
  • Few at 4,600' AGL
Temperature Dewpoint
17°C / 63°F -2°C / 28°F
Humidity Altimeter Pressure
27% 29.7" Hg 1006 hPa